createdAt,value
2018-03-27T00:02:11.153Z,12.33
2018-03-27T00:04:40.036Z,11.57
2018-03-27T00:07:09.665Z,12.40
2018-03-27T00:09:38.554Z,15.57
2018-03-27T00:12:08.045Z,15.40
2018-03-27T00:14:36.895Z,14.63
2018-03-27T00:17:05.735Z,14.77
2018-03-27T00:19:35.679Z,14.90
2018-03-27T00:22:05.085Z,14.47
2018-03-27T00:24:42.692Z,15.37
2018-03-27T00:27:11.305Z,13.80
2018-03-27T00:29:46.130Z,13.90
2018-03-27T00:32:20.910Z,15.83
2018-03-27T00:34:55.512Z,17.30
2018-03-27T00:37:30.243Z,14.40
2018-03-27T00:40:05.719Z,15.63
2018-03-27T00:42:54.207Z,13.40
2018-03-27T00:45:23.145Z,14.77
2018-03-27T00:47:52.027Z,16.10
2018-03-27T00:50:20.903Z,12.70
2018-03-27T00:52:49.753Z,13.53
2018-03-27T00:55:18.641Z,12.03
2018-03-27T00:57:47.576Z,15.30
2018-03-27T01:00:16.384Z,12.73
2018-03-27T01:02:45.239Z,12.07
2018-03-27T01:05:14.094Z,13.70
2018-03-27T01:07:42.994Z,10.60
2018-03-27T01:10:11.845Z,12.23
2018-03-27T01:12:40.702Z,11.53
2018-03-27T01:15:10.390Z,10.07
2018-03-27T01:17:40.097Z,9.93
2018-03-27T01:20:09.791Z,11.00
2018-03-27T01:22:38.656Z,12.13
2018-03-27T01:25:07.539Z,12.67
2018-03-27T01:27:36.379Z,12.27
2018-03-27T01:30:05.239Z,13.53
2018-03-27T01:32:34.943Z,13.03
2018-03-27T01:35:03.796Z,12.80
2018-03-27T01:37:32.652Z,13.43
2018-03-27T01:40:01.528Z,14.30
2018-03-27T01:42:30.374Z,13.93
2018-03-27T01:44:59.216Z,14.27
2018-03-27T01:47:28.444Z,14.83
2018-03-27T01:49:57.282Z,14.40
2018-03-27T01:52:26.766Z,13.87
2018-03-27T01:54:55.635Z,14.83
2018-03-27T01:57:24.476Z,15.80
2018-03-27T01:59:53.353Z,14.77
2018-03-27T02:02:22.212Z,13.80
2018-03-27T02:04:51.076Z,13.93
2018-03-27T02:07:19.999Z,11.23
2018-03-27T02:09:49.165Z,13.00
2018-03-27T02:12:23.792Z,11.97
2018-03-27T02:14:58.502Z,13.67
2018-03-27T02:17:33.154Z,13.00
2018-03-27T02:20:07.748Z,14.40
2018-03-27T02:22:41.274Z,12.43
2018-03-27T02:25:10.140Z,13.63
2018-03-27T02:27:39.023Z,11.13
2018-03-27T02:30:07.887Z,13.67
2018-03-27T02:32:37.376Z,10.90
2018-03-27T02:35:06.224Z,10.57
2018-03-27T02:37:35.077Z,14.33
2018-03-27T02:40:03.936Z,11.30
2018-03-27T02:42:32.773Z,11.73
2018-03-27T02:45:02.081Z,15.40
2018-03-27T02:47:30.930Z,10.43
2018-03-27T02:49:59.770Z,15.70
2018-03-27T02:52:30.148Z,15.17
2018-03-27T02:54:59.025Z,13.30
2018-03-27T02:57:27.877Z,10.63
2018-03-27T02:59:56.707Z,14.63
2018-03-27T03:02:26.270Z,13.30
2018-03-27T03:04:55.112Z,12.17
2018-03-27T03:07:23.965Z,11.17
2018-03-27T03:09:53.602Z,13.83
2018-03-27T03:12:22.856Z,16.17
2018-03-27T03:14:52.473Z,13.47
2018-03-27T03:17:21.334Z,16.37
2018-03-27T03:19:50.180Z,16.80
2018-03-27T03:22:19.054Z,18.27
2018-03-27T03:24:47.904Z,18.93
2018-03-27T03:27:17.116Z,18.97
2018-03-27T03:29:45.980Z,14.77
2018-03-27T03:32:14.821Z,18.23
2018-03-27T03:34:43.680Z,17.17
2018-03-27T03:37:12.544Z,18.90
2018-03-27T03:39:41.401Z,20.50
2018-03-27T03:42:10.244Z,17.07
2018-03-27T03:44:39.103Z,15.93
2018-03-27T03:47:07.943Z,20.40
2018-03-27T03:49:36.780Z,19.40
2018-03-27T03:52:05.672Z,19.60
2018-03-27T03:54:34.511Z,14.70
2018-03-27T03:57:03.379Z,19.63
2018-03-27T03:59:32.235Z,14.23
2018-03-27T04:02:03.324Z,16.57
2018-03-27T04:04:34.872Z,14.53
2018-03-27T04:07:04.749Z,14.80
2018-03-27T04:09:34.328Z,16.80
2018-03-27T04:12:03.986Z,13.33
2018-03-27T04:14:32.871Z,15.37
2018-03-27T04:17:01.718Z,14.80
2018-03-27T04:19:30.593Z,14.93
2018-03-27T04:21:59.440Z,18.40
2018-03-27T04:24:28.276Z,18.37
2018-03-27T04:26:57.160Z,16.23
2018-03-27T04:29:26.010Z,12.83
2018-03-27T04:31:54.860Z,17.53
2018-03-27T04:34:24.460Z,20.40
2018-03-27T04:36:53.710Z,18.00
2018-03-27T04:39:23.319Z,19.27
2018-03-27T04:41:52.209Z,19.67
2018-03-27T04:44:21.093Z,20.53
2018-03-27T04:46:49.941Z,25.20
2018-03-27T04:49:18.793Z,22.87
2018-03-27T04:51:47.650Z,23.93
2018-03-27T04:54:16.484Z,21.43
2018-03-27T04:56:45.344Z,22.77
2018-03-27T04:59:14.180Z,26.27
2018-03-27T05:01:43.034Z,25.83
2018-03-27T05:04:11.903Z,26.03
2018-03-27T05:06:40.767Z,25.20
2018-03-27T05:09:09.648Z,25.50
2018-03-27T05:11:38.524Z,23.23
2018-03-27T05:14:07.384Z,25.33
2018-03-27T05:16:36.272Z,26.57
2018-03-27T05:19:05.217Z,25.57
2018-03-27T05:21:35.000Z,25.30
2018-03-27T05:24:03.861Z,24.33
2018-03-27T05:26:33.602Z,25.20
2018-03-27T05:29:03.212Z,27.37
2018-03-27T05:31:32.077Z,26.50
2018-03-27T05:34:00.912Z,25.47
2018-03-27T05:36:30.442Z,25.90
2018-03-27T05:38:59.303Z,26.53
2018-03-27T05:41:28.201Z,25.80
2018-03-27T05:43:57.608Z,26.17
2018-03-27T05:46:26.516Z,26.97
2018-03-27T05:48:55.408Z,27.63
2018-03-27T05:51:24.282Z,28.20
2018-03-27T05:53:53.188Z,29.20
2018-03-27T05:56:22.836Z,27.93
2018-03-27T05:58:51.720Z,28.40
2018-03-27T06:01:20.576Z,24.63
2018-03-27T06:03:50.266Z,23.67
2018-03-27T06:06:19.190Z,28.20
2018-03-27T06:08:48.294Z,26.63
2018-03-27T06:11:17.141Z,29.90
2018-03-27T06:13:46.072Z,29.70
2018-03-27T06:16:14.922Z,28.63
2018-03-27T06:18:43.841Z,26.57
2018-03-27T06:21:12.692Z,26.83
2018-03-27T06:23:41.762Z,26.33
2018-03-27T06:26:10.751Z,26.07
2018-03-27T06:28:39.641Z,23.97
2018-03-27T06:31:10.080Z,23.40
2018-03-27T06:33:38.960Z,23.03
2018-03-27T06:36:09.044Z,22.30
2018-03-27T06:38:39.292Z,20.97
2018-03-27T06:41:09.415Z,22.43
2018-03-27T06:43:38.388Z,21.60
2018-03-27T06:46:07.246Z,22.27
2018-03-27T06:48:36.116Z,21.90
2018-03-27T06:51:04.973Z,22.40
2018-03-27T06:53:33.872Z,22.73
2018-03-27T06:56:02.793Z,23.07
2018-03-27T06:58:31.642Z,21.97
2018-03-27T07:01:00.484Z,21.33
2018-03-27T07:03:30.298Z,22.10
2018-03-27T07:05:59.137Z,21.80
2018-03-27T07:08:29.968Z,22.43
2018-03-27T07:10:58.889Z,22.83
2018-03-27T07:13:29.280Z,21.30
2018-03-27T07:15:58.132Z,24.13
2018-03-27T07:18:26.980Z,22.07
2018-03-27T07:20:55.861Z,23.17
2018-03-27T07:23:24.727Z,21.40
2018-03-27T07:25:53.610Z,21.00
2018-03-27T07:28:23.114Z,18.30
2018-03-27T07:30:52.000Z,18.40
2018-03-27T07:33:20.860Z,17.90
2018-03-27T07:35:51.002Z,16.33
2018-03-27T07:38:19.872Z,15.33
2018-03-27T07:40:48.999Z,15.33
2018-03-27T07:43:18.476Z,14.70
2018-03-27T07:45:47.825Z,13.53
2018-03-27T07:50:50.727Z,13.93
2018-03-27T07:53:19.606Z,13.93
2018-03-27T07:55:50.225Z,13.23
2018-03-27T07:58:19.152Z,13.43
2018-03-27T08:00:47.973Z,13.37
2018-03-27T08:03:16.806Z,14.23
2018-03-27T08:05:45.980Z,12.57
2018-03-27T08:08:14.842Z,13.07
2018-03-27T08:10:48.298Z,12.83
2018-03-27T08:19:10.417Z,10.67
2018-03-27T08:21:39.271Z,11.17
2018-03-27T08:24:08.820Z,11.23
2018-03-27T08:26:40.651Z,11.27
2018-03-27T08:29:12.901Z,10.37
2018-03-27T08:31:42.072Z,9.57
2018-03-27T08:34:10.909Z,10.10
2018-03-27T08:36:39.764Z,10.40
2018-03-27T08:39:08.622Z,10.27
2018-03-27T08:41:37.459Z,10.27
2018-03-27T08:44:06.902Z,10.17
2018-03-27T08:46:35.789Z,9.53
2018-03-27T08:49:05.771Z,9.57
2018-03-27T08:51:35.086Z,9.17
2018-03-27T08:54:03.980Z,9.73
2018-03-27T08:56:32.813Z,9.63
2018-03-27T08:59:01.645Z,8.90
2018-03-27T09:01:31.331Z,9.83
2018-03-27T09:04:00.163Z,9.33
2018-03-27T09:06:31.898Z,9.00
2018-03-27T09:09:00.745Z,7.67
2018-03-27T09:11:29.673Z,8.13
2018-03-27T09:13:59.525Z,7.80
2018-03-27T09:16:28.365Z,7.73
2018-03-27T09:18:57.781Z,6.60
2018-03-27T09:21:26.616Z,7.27
2018-03-27T09:23:55.462Z,8.23
2018-03-27T09:26:24.327Z,6.93
2018-03-27T09:28:53.230Z,6.40
2018-03-27T09:31:22.062Z,6.50
2018-03-27T09:33:50.945Z,6.93
2018-03-27T09:36:19.798Z,6.80
2018-03-27T09:38:49.449Z,6.90
2018-03-27T09:41:18.347Z,5.90
2018-03-27T09:43:47.309Z,5.70
2018-03-27T09:46:16.155Z,6.40
2018-03-27T09:48:45.091Z,6.43
2018-03-27T09:51:13.923Z,6.53
2018-03-27T09:53:43.672Z,6.20
2018-03-27T09:56:13.115Z,6.40
2018-03-27T09:58:46.602Z,7.17
2018-03-27T10:01:21.309Z,8.30
2018-03-27T10:03:50.208Z,8.00
2018-03-27T10:06:20.743Z,8.63
2018-03-27T10:08:50.751Z,9.53
2018-03-27T10:11:20.120Z,9.87
2018-03-27T10:16:33.863Z,12.70
2018-03-27T10:19:02.743Z,9.53
2018-03-27T10:21:31.599Z,13.30
2018-03-27T10:24:02.557Z,14.33
2018-03-27T10:26:31.502Z,13.40
2018-03-27T10:29:00.696Z,16.03
2018-03-27T10:31:31.329Z,13.97
2018-03-27T10:34:00.985Z,14.63
2018-03-27T10:36:31.055Z,15.80
2018-03-27T10:39:01.378Z,15.83
2018-03-27T10:41:30.284Z,15.40
2018-03-27T10:43:59.351Z,15.80
2018-03-27T10:46:29.025Z,16.37
2018-03-27T10:48:58.784Z,15.50
2018-03-27T10:51:27.629Z,17.37
2018-03-27T10:53:56.501Z,16.73
2018-03-27T10:56:25.367Z,16.93
2018-03-27T10:58:54.845Z,17.93
2018-03-27T11:01:23.682Z,18.37
2018-03-27T11:03:53.284Z,18.90
2018-03-27T11:06:22.133Z,18.57
2018-03-27T11:08:51.019Z,17.90
2018-03-27T11:11:20.645Z,17.87
2018-03-27T11:13:50.291Z,17.77
2018-03-27T11:16:19.193Z,18.37
2018-03-27T11:18:49.106Z,17.47
2018-03-27T11:21:17.962Z,15.10
2018-03-27T11:23:46.812Z,16.87
2018-03-27T11:26:16.359Z,16.40
2018-03-27T11:28:45.228Z,15.40
2018-03-27T11:31:14.089Z,15.67
2018-03-27T11:33:43.218Z,16.60
2018-03-27T11:36:13.044Z,15.33
2018-03-27T11:38:42.841Z,15.40
2018-03-27T11:41:11.696Z,15.53
2018-03-27T11:43:40.549Z,15.67
2018-03-27T11:46:10.423Z,13.53
2018-03-27T11:48:39.308Z,13.97
2018-03-27T11:51:08.985Z,13.50
2018-03-27T11:53:37.887Z,12.57
2018-03-27T11:56:06.727Z,12.17
2018-03-27T11:58:36.214Z,11.63
2018-03-27T12:01:05.150Z,12.17
2018-03-27T12:03:33.998Z,14.50
2018-03-27T12:06:03.279Z,11.73
2018-03-27T12:08:32.673Z,9.03
2018-03-27T12:11:03.134Z,8.03
2018-03-27T12:13:33.394Z,8.33
2018-03-27T12:16:03.742Z,9.40
2018-03-27T12:18:33.950Z,9.40
2018-03-27T12:21:03.734Z,8.90
2018-03-27T12:23:33.374Z,9.87
2018-03-27T12:26:03.213Z,9.27
2018-03-27T12:28:33.186Z,9.00
2018-03-27T12:31:03.922Z,10.63
2018-03-27T12:33:33.097Z,9.13
2018-03-27T12:36:03.334Z,9.53
2018-03-27T12:38:34.051Z,9.50
2018-03-27T12:41:02.925Z,9.97
2018-03-27T12:43:32.582Z,10.43
2018-03-27T12:46:04.122Z,10.10
2018-03-27T12:48:34.187Z,11.10
2018-03-27T12:51:03.128Z,10.80
2018-03-27T12:53:32.854Z,11.40
2018-03-27T12:56:03.364Z,11.87
2018-03-27T12:58:33.094Z,11.63
2018-03-27T13:01:04.784Z,12.13
2018-03-27T13:03:33.640Z,13.27
2018-03-27T13:06:04.114Z,11.67
2018-03-27T13:08:33.285Z,13.27
2018-03-27T13:11:02.992Z,12.83
2018-03-27T13:13:33.386Z,13.77
2018-03-27T13:16:03.681Z,13.70
2018-03-27T13:18:35.064Z,12.57
2018-03-27T13:21:03.948Z,13.97
2018-03-27T13:23:34.225Z,13.57
2018-03-27T13:26:03.060Z,13.53
2018-03-27T13:28:32.864Z,13.13
2018-03-27T13:31:04.473Z,12.97
2018-03-27T13:33:33.973Z,12.30
2018-03-27T13:36:04.584Z,12.00
2018-03-27T13:38:34.292Z,12.07
2018-03-27T13:41:03.172Z,11.37
2018-03-27T13:43:32.118Z,11.40
2018-03-27T13:46:01.332Z,12.23
2018-03-27T13:48:30.199Z,13.13
2018-03-27T13:50:59.068Z,13.30
2018-03-27T13:53:28.768Z,13.13
2018-03-27T13:55:58.288Z,12.73
2018-03-27T13:58:27.164Z,13.13
2018-03-27T14:00:56.010Z,13.70
2018-03-27T14:03:25.533Z,13.43
2018-03-27T14:05:54.465Z,11.70
2018-03-27T14:08:23.974Z,13.10
2018-03-27T14:10:52.808Z,12.70
2018-03-27T14:13:22.742Z,14.13
2018-03-27T14:15:51.584Z,13.80
2018-03-27T14:18:20.969Z,15.83
2018-03-27T14:20:49.856Z,15.20
2018-03-27T14:23:18.704Z,12.30
2018-03-27T14:25:47.570Z,14.77
2018-03-27T14:28:16.452Z,14.53
2018-03-27T14:30:46.236Z,13.97
2018-03-27T14:33:15.906Z,13.97
2018-03-27T14:35:44.753Z,14.53
2018-03-27T14:38:13.609Z,15.43
2018-03-27T14:40:43.323Z,14.27
2018-03-27T14:43:12.162Z,14.03
2018-03-27T14:45:41.008Z,16.13
2018-03-27T14:48:10.344Z,14.30
2018-03-27T14:50:40.038Z,16.97
2018-03-27T14:53:09.256Z,14.03
2018-03-27T14:55:38.839Z,12.97
2018-03-27T14:58:09.660Z,11.37
2018-03-27T15:00:38.518Z,10.27
2018-03-27T15:03:07.763Z,10.50
2018-03-27T15:05:36.610Z,11.30
2018-03-27T15:08:05.485Z,10.23
2018-03-27T15:10:34.356Z,13.17
2018-03-27T15:13:03.219Z,8.87
2018-03-27T15:15:33.530Z,9.20
2018-03-27T15:18:02.668Z,9.80
2018-03-27T15:20:31.523Z,10.73
2018-03-27T15:23:00.380Z,8.83
2018-03-27T15:25:29.542Z,7.50
2018-03-27T15:27:58.425Z,7.67
2018-03-27T15:30:27.291Z,8.97
2018-03-27T15:32:56.156Z,9.27
2018-03-27T15:35:25.480Z,8.23
2018-03-27T15:37:54.312Z,9.43
2018-03-27T15:40:23.597Z,13.90
2018-03-27T15:42:53.367Z,11.03
2018-03-27T15:45:23.210Z,9.70
2018-03-27T15:47:53.887Z,8.93
2018-03-27T15:50:23.675Z,8.97
2018-03-27T15:52:52.518Z,8.53
2018-03-27T15:55:21.366Z,8.20
2018-03-27T15:57:50.824Z,9.00
2018-03-27T16:00:19.870Z,8.77
2018-03-27T16:02:48.710Z,8.23
2018-03-27T16:05:17.676Z,8.13
2018-03-27T16:07:46.516Z,8.00
2018-03-27T16:10:15.360Z,7.60
2018-03-27T16:12:44.206Z,8.53
2018-03-27T16:15:13.104Z,8.87
2018-03-27T16:17:42.964Z,8.80
2018-03-27T16:20:12.528Z,7.93
2018-03-27T16:22:42.124Z,6.23
2018-03-27T16:25:11.005Z,7.20
2018-03-27T16:27:39.967Z,6.50
2018-03-27T16:30:09.128Z,7.20
2018-03-27T16:32:38.008Z,6.77
2018-03-27T16:35:06.852Z,7.20
2018-03-27T16:37:35.681Z,6.30
2018-03-27T16:40:04.559Z,6.43
2018-03-27T16:42:33.420Z,6.43
2018-03-27T16:45:03.198Z,6.60
2018-03-27T16:47:39.671Z,6.10
2018-03-27T16:50:08.976Z,6.70
2018-03-27T16:52:38.458Z,6.50
2018-03-27T16:55:07.330Z,5.80
2018-03-27T16:57:36.826Z,6.87
2018-03-27T17:00:05.697Z,8.27
2018-03-27T17:02:34.560Z,6.10
2018-03-27T17:05:03.417Z,7.40
2018-03-27T17:07:33.163Z,6.53
2018-03-27T17:10:02.069Z,6.90
2018-03-27T17:12:30.931Z,6.60
2018-03-27T17:14:59.880Z,6.27
2018-03-27T17:17:28.719Z,7.07
2018-03-27T17:19:57.597Z,7.63
2018-03-27T17:22:27.166Z,6.53
2018-03-27T17:24:55.998Z,7.10
2018-03-27T17:27:25.600Z,7.13
2018-03-27T17:29:57.413Z,6.87
2018-03-27T17:32:26.258Z,7.13
2018-03-27T17:34:56.045Z,11.37
2018-03-27T17:37:25.750Z,7.73
2018-03-27T17:39:55.403Z,7.33
2018-03-27T17:42:25.811Z,7.30
2018-03-27T17:44:55.325Z,7.33
2018-03-27T17:47:24.196Z,6.90
2018-03-27T17:49:53.094Z,8.27
2018-03-27T17:52:22.552Z,7.10
2018-03-27T17:54:52.375Z,7.00
2018-03-27T17:57:22.055Z,6.60
2018-03-27T17:59:51.868Z,6.97
2018-03-27T18:02:20.835Z,7.60
2018-03-27T18:04:50.317Z,6.80
2018-03-27T18:07:19.707Z,8.43
2018-03-27T18:09:49.247Z,6.93
2018-03-27T18:12:18.081Z,7.30
2018-03-27T18:14:46.988Z,7.93
2018-03-27T18:17:15.805Z,7.17
2018-03-27T18:19:44.665Z,7.97
2018-03-27T18:22:15.819Z,8.23
2018-03-27T18:24:44.676Z,7.13
2018-03-27T18:27:13.517Z,7.40
2018-03-27T18:29:44.044Z,8.23
2018-03-27T18:32:13.568Z,7.83
2018-03-27T18:34:43.367Z,8.10
2018-03-27T18:37:12.240Z,7.80
2018-03-27T18:39:41.453Z,8.57
2018-03-27T18:42:10.683Z,11.60
2018-03-27T18:44:39.535Z,8.70
2018-03-27T18:47:08.395Z,9.43
2018-03-27T18:49:38.095Z,11.60
2018-03-27T18:52:08.058Z,10.53
2018-03-27T18:54:36.933Z,9.73
2018-03-27T18:57:06.499Z,11.33
2018-03-27T18:59:35.355Z,9.83
2018-03-27T19:02:04.278Z,10.40
2018-03-27T19:04:33.733Z,11.47
2018-03-27T19:07:02.666Z,17.53
2018-03-27T19:09:31.544Z,10.33
2018-03-27T19:12:00.419Z,10.83
2018-03-27T19:14:29.477Z,12.03
2018-03-27T19:16:58.552Z,12.40
2018-03-27T19:19:27.419Z,12.17
2018-03-27T19:21:57.319Z,12.20
2018-03-27T19:24:26.745Z,12.53
2018-03-27T19:26:56.627Z,13.70
2018-03-27T19:29:26.825Z,12.73
2018-03-27T19:31:56.753Z,12.63
2018-03-27T19:34:27.359Z,13.00
2018-03-27T19:36:56.993Z,12.40
2018-03-27T19:39:25.844Z,13.27
2018-03-27T19:41:54.699Z,12.73
2018-03-27T19:44:23.543Z,14.40
2018-03-27T19:46:52.461Z,14.97
2018-03-27T19:49:21.351Z,16.93
2018-03-27T19:51:50.198Z,17.07
2018-03-27T19:54:20.037Z,18.53
2018-03-27T19:56:50.530Z,14.97
2018-03-27T19:59:20.257Z,15.80
2018-03-27T20:01:49.181Z,14.80
2018-03-27T20:04:18.043Z,15.63
2018-03-27T20:06:46.894Z,15.10
2018-03-27T20:09:15.991Z,15.53
2018-03-27T20:11:44.857Z,15.50
2018-03-27T20:14:17.404Z,15.07
2018-03-27T20:16:47.068Z,16.33
2018-03-27T20:19:15.940Z,16.73
2018-03-27T20:21:44.789Z,19.40
2018-03-27T20:24:13.807Z,14.90
2018-03-27T20:26:43.648Z,15.27
2018-03-27T20:29:13.324Z,18.00
2018-03-27T20:31:42.498Z,16.80
2018-03-27T20:34:12.284Z,17.53
2018-03-27T20:36:42.604Z,17.00
2018-03-27T20:39:11.459Z,18.13
2018-03-27T20:41:44.257Z,18.80
2018-03-27T20:44:13.138Z,17.93
2018-03-27T20:46:42.504Z,17.80
2018-03-27T20:49:11.377Z,17.73
2018-03-27T20:51:41.320Z,18.93
2018-03-27T20:54:11.902Z,20.47
2018-03-27T20:56:40.771Z,19.47
2018-03-27T20:59:09.680Z,19.60
2018-03-27T21:01:38.580Z,21.33
2018-03-27T21:04:07.447Z,22.50
2018-03-27T21:06:37.241Z,20.43
2018-03-27T21:09:06.385Z,23.73
2018-03-27T21:11:35.622Z,23.13
2018-03-27T21:14:04.484Z,23.93
2018-03-27T21:16:33.327Z,25.17
2018-03-27T21:19:03.175Z,25.73
2018-03-27T21:21:33.258Z,26.23
2018-03-27T21:24:02.794Z,24.63
2018-03-27T21:26:31.684Z,27.90
2018-03-27T21:29:00.519Z,28.43
2018-03-27T21:31:30.311Z,29.63
2018-03-27T21:33:59.240Z,28.10
2018-03-27T21:36:28.080Z,27.03
2018-03-27T21:38:58.187Z,27.93
2018-03-27T21:41:27.843Z,27.40
2018-03-27T21:43:56.687Z,28.93
2018-03-27T21:46:25.540Z,27.40
2018-03-27T21:48:55.201Z,27.87
2018-03-27T21:51:24.044Z,26.27
2018-03-27T21:53:52.925Z,24.90
2018-03-27T21:56:22.752Z,25.47
2018-03-27T21:58:51.708Z,25.07
2018-03-27T22:01:22.179Z,21.63
2018-03-27T22:03:51.072Z,24.03
2018-03-27T22:06:24.876Z,23.20
2018-03-27T22:08:54.275Z,22.67
2018-03-27T22:11:23.475Z,23.27
2018-03-27T22:13:53.150Z,23.63
2018-03-27T22:16:22.976Z,24.60
2018-03-27T22:18:51.826Z,23.77
2018-03-27T22:21:22.240Z,24.90
2018-03-27T22:23:51.109Z,25.20
2018-03-27T22:26:19.967Z,25.13
2018-03-27T22:28:49.707Z,27.27
2018-03-27T22:31:18.568Z,26.87
2018-03-27T22:33:47.413Z,26.17
2018-03-27T22:36:16.254Z,26.87
2018-03-27T22:38:45.124Z,26.73
2018-03-27T22:41:13.984Z,26.30
2018-03-27T22:43:43.901Z,23.30
2018-03-27T22:46:12.769Z,24.77
2018-03-27T22:48:41.697Z,27.90
2018-03-27T22:51:11.740Z,26.17
2018-03-27T22:53:40.690Z,26.73
2018-03-27T22:56:09.534Z,25.63
2018-03-27T22:58:38.704Z,23.47
2018-03-27T23:01:07.578Z,24.40
2018-03-27T23:03:36.762Z,22.53
2018-03-27T23:06:05.602Z,23.30
2018-03-27T23:08:34.476Z,23.60
2018-03-27T23:11:03.347Z,23.07
2018-03-27T23:13:32.198Z,24.80
2018-03-27T23:16:01.593Z,23.20
2018-03-27T23:18:31.086Z,25.03
2018-03-27T23:20:59.935Z,27.17
2018-03-27T23:23:29.110Z,25.80
2018-03-27T23:25:57.953Z,24.40
2018-03-27T23:28:26.787Z,25.97
2018-03-27T23:30:55.864Z,26.27
2018-03-27T23:33:24.707Z,25.07
2018-03-27T23:35:53.568Z,24.43
2018-03-27T23:38:23.208Z,25.13
2018-03-27T23:40:52.064Z,22.73
2018-03-27T23:43:20.912Z,23.17
2018-03-27T23:45:50.642Z,22.40
2018-03-27T23:48:19.522Z,20.87
2018-03-27T23:50:48.419Z,19.73
2018-03-27T23:53:17.308Z,21.37
2018-03-27T23:55:46.161Z,19.60
2018-03-27T23:58:15.598Z,20.43
